sensor_id;sensor_type;location;lat;lon;timestamp;P1;durP1;ratioP1;P2;durP2;ratioP2
80936;SDS011;70395;51.382;7.074;2024-02-21T00:01:01;24.70;;;12.87;;
80936;SDS011;70395;51.382;7.074;2024-02-21T00:03:27;22.23;;;12.03;;
80936;SDS011;70395;51.382;7.074;2024-02-21T00:05:52;29.83;;;11.83;;
80936;SDS011;70395;51.382;7.074;2024-02-21T00:08:18;22.20;;;12.67;;
80936;SDS011;70395;51.382;7.074;2024-02-21T00:10:44;24.70;;;13.00;;
80936;SDS011;70395;51.382;7.074;2024-02-21T00:13:10;20.80;;;12.47;;
80936;SDS011;70395;51.382;7.074;2024-02-21T00:15:36;19.50;;;12.00;;
80936;SDS011;70395;51.382;7.074;2024-02-21T00:18:02;20.33;;;11.63;;
80936;SDS011;70395;51.382;7.074;2024-02-21T00:20:28;21.20;;;12.80;;
80936;SDS011;70395;51.382;7.074;2024-02-21T00:22:55;26.03;;;12.57;;
80936;SDS011;70395;51.382;7.074;2024-02-21T00:25:21;23.87;;;11.43;;
80936;SDS011;70395;51.382;7.074;2024-02-21T00:27:46;19.30;;;12.90;;
80936;SDS011;70395;51.382;7.074;2024-02-21T00:30:12;19.47;;;11.53;;
80936;SDS011;70395;51.382;7.074;2024-02-21T00:32:38;21.97;;;12.27;;
80936;SDS011;70395;51.382;7.074;2024-02-21T00:35:04;25.33;;;11.63;;
80936;SDS011;70395;51.382;7.074;2024-02-21T00:37:30;23.00;;;12.83;;
80936;SDS011;70395;51.382;7.074;2024-02-21T00:39:57;21.70;;;11.70;;
80936;SDS011;70395;51.382;7.074;2024-02-21T00:42:22;23.43;;;11.97;;
80936;SDS011;70395;51.382;7.074;2024-02-21T00:44:48;19.07;;;11.87;;
80936;SDS011;70395;51.382;7.074;2024-02-21T00:47:14;18.90;;;10.30;;
80936;SDS011;70395;51.382;7.074;2024-02-21T00:49:40;23.30;;;11.60;;
80936;SDS011;70395;51.382;7.074;2024-02-21T00:52:06;24.00;;;10.87;;
80936;SDS011;70395;51.382;7.074;2024-02-21T00:54:32;21.80;;;12.10;;
80936;SDS011;70395;51.382;7.074;2024-02-21T00:56:58;19.97;;;12.40;;
80936;SDS011;70395;51.382;7.074;2024-02-21T00:59:23;21.43;;;12.30;;
80936;SDS011;70395;51.382;7.074;2024-02-21T01:01:49;23.47;;;13.03;;
80936;SDS011;70395;51.382;7.074;2024-02-21T01:04:15;17.23;;;11.37;;
80936;SDS011;70395;51.382;7.074;2024-02-21T01:06:41;23.70;;;11.77;;
80936;SDS011;70395;51.382;7.074;2024-02-21T01:09:09;22.73;;;11.03;;
80936;SDS011;70395;51.382;7.074;2024-02-21T01:11:36;22.20;;;12.90;;
80936;SDS011;70395;51.382;7.074;2024-02-21T01:14:02;20.10;;;12.20;;
80936;SDS011;70395;51.382;7.074;2024-02-21T01:16:28;21.60;;;12.27;;
80936;SDS011;70395;51.382;7.074;2024-02-21T01:18:53;22.50;;;10.57;;
80936;SDS011;70395;51.382;7.074;2024-02-21T01:21:19;17.23;;;10.30;;
80936;SDS011;70395;51.382;7.074;2024-02-21T01:23:45;20.30;;;11.53;;
80936;SDS011;70395;51.382;7.074;2024-02-21T01:26:11;24.93;;;11.80;;
80936;SDS011;70395;51.382;7.074;2024-02-21T01:28:39;18.03;;;10.73;;
80936;SDS011;70395;51.382;7.074;2024-02-21T01:31:05;25.87;;;13.27;;
80936;SDS011;70395;51.382;7.074;2024-02-21T01:33:31;23.90;;;11.97;;
80936;SDS011;70395;51.382;7.074;2024-02-21T01:36:02;40.93;;;13.97;;
80936;SDS011;70395;51.382;7.074;2024-02-21T01:38:31;23.27;;;12.90;;
80936;SDS011;70395;51.382;7.074;2024-02-21T01:40:57;21.77;;;13.60;;
80936;SDS011;70395;51.382;7.074;2024-02-21T01:43:23;21.40;;;12.43;;
80936;SDS011;70395;51.382;7.074;2024-02-21T01:45:50;18.00;;;11.33;;
80936;SDS011;70395;51.382;7.074;2024-02-21T01:48:18;16.40;;;11.63;;
80936;SDS011;70395;51.382;7.074;2024-02-21T01:50:46;18.87;;;12.57;;
80936;SDS011;70395;51.382;7.074;2024-02-21T01:53:15;23.97;;;12.30;;
80936;SDS011;70395;51.382;7.074;2024-02-21T01:55:47;22.70;;;12.30;;
80936;SDS011;70395;51.382;7.074;2024-02-21T01:58:14;23.97;;;12.17;;
80936;SDS011;70395;51.382;7.074;2024-02-21T02:00:44;31.57;;;13.93;;
80936;SDS011;70395;51.382;7.074;2024-02-21T02:03:12;21.80;;;12.20;;
80936;SDS011;70395;51.382;7.074;2024-02-21T02:05:49;27.00;;;12.10;;
80936;SDS011;70395;51.382;7.074;2024-02-21T02:08:16;19.50;;;12.50;;
80936;SDS011;70395;51.382;7.074;2024-02-21T02:10:44;21.57;;;11.53;;
80936;SDS011;70395;51.382;7.074;2024-02-21T02:13:10;17.50;;;11.33;;
80936;SDS011;70395;51.382;7.074;2024-02-21T02:15:46;22.30;;;11.70;;
80936;SDS011;70395;51.382;7.074;2024-02-21T02:18:14;24.10;;;11.00;;
80936;SDS011;70395;51.382;7.074;2024-02-21T02:20:42;28.40;;;13.40;;
80936;SDS011;70395;51.382;7.074;2024-02-21T02:23:10;21.27;;;11.50;;
80936;SDS011;70395;51.382;7.074;2024-02-21T02:25:58;24.03;;;11.10;;
80936;SDS011;70395;51.382;7.074;2024-02-21T02:28:24;20.83;;;11.40;;
80936;SDS011;70395;51.382;7.074;2024-02-21T02:30:50;22.10;;;10.97;;
80936;SDS011;70395;51.382;7.074;2024-02-21T02:33:16;23.07;;;13.13;;
80936;SDS011;70395;51.382;7.074;2024-02-21T02:35:45;21.43;;;11.97;;
80936;SDS011;70395;51.382;7.074;2024-02-21T02:38:11;20.20;;;11.03;;
80936;SDS011;70395;51.382;7.074;2024-02-21T02:40:38;17.60;;;11.17;;
80936;SDS011;70395;51.382;7.074;2024-02-21T02:43:05;17.57;;;10.13;;
80936;SDS011;70395;51.382;7.074;2024-02-21T02:45:32;17.67;;;10.53;;
80936;SDS011;70395;51.382;7.074;2024-02-21T02:47:58;20.33;;;10.33;;
80936;SDS011;70395;51.382;7.074;2024-02-21T02:50:25;22.30;;;10.33;;
80936;SDS011;70395;51.382;7.074;2024-02-21T02:52:52;17.20;;;9.53;;
80936;SDS011;70395;51.382;7.074;2024-02-21T02:55:19;17.23;;;10.13;;
80936;SDS011;70395;51.382;7.074;2024-02-21T02:57:45;19.40;;;10.90;;
80936;SDS011;70395;51.382;7.074;2024-02-21T03:00:12;23.57;;;10.50;;
80936;SDS011;70395;51.382;7.074;2024-02-21T03:02:39;19.03;;;11.07;;
80936;SDS011;70395;51.382;7.074;2024-02-21T03:05:14;22.63;;;10.70;;
80936;SDS011;70395;51.382;7.074;2024-02-21T03:07:45;23.30;;;10.73;;
80936;SDS011;70395;51.382;7.074;2024-02-21T03:10:12;16.60;;;10.07;;
80936;SDS011;70395;51.382;7.074;2024-02-21T03:12:38;23.80;;;12.40;;
80936;SDS011;70395;51.382;7.074;2024-02-21T03:15:05;21.60;;;11.60;;
80936;SDS011;70395;51.382;7.074;2024-02-21T03:17:32;17.57;;;10.33;;
80936;SDS011;70395;51.382;7.074;2024-02-21T03:20:01;18.30;;;11.40;;
80936;SDS011;70395;51.382;7.074;2024-02-21T03:22:34;22.63;;;10.77;;
80936;SDS011;70395;51.382;7.074;2024-02-21T03:25:01;15.80;;;10.07;;
80936;SDS011;70395;51.382;7.074;2024-02-21T03:27:28;28.40;;;11.10;;
80936;SDS011;70395;51.382;7.074;2024-02-21T03:29:54;20.37;;;11.27;;
80936;SDS011;70395;51.382;7.074;2024-02-21T03:32:19;18.53;;;10.37;;
80936;SDS011;70395;51.382;7.074;2024-02-21T03:34:45;19.40;;;9.77;;
80936;SDS011;70395;51.382;7.074;2024-02-21T03:37:11;18.60;;;11.10;;
80936;SDS011;70395;51.382;7.074;2024-02-21T03:39:38;21.40;;;11.70;;
80936;SDS011;70395;51.382;7.074;2024-02-21T03:42:05;18.30;;;11.00;;
80936;SDS011;70395;51.382;7.074;2024-02-21T03:44:31;15.00;;;10.33;;
80936;SDS011;70395;51.382;7.074;2024-02-21T03:46:58;17.63;;;9.47;;
80936;SDS011;70395;51.382;7.074;2024-02-21T03:49:25;20.87;;;11.70;;
80936;SDS011;70395;51.382;7.074;2024-02-21T03:51:52;20.70;;;10.47;;
80936;SDS011;70395;51.382;7.074;2024-02-21T03:54:18;18.10;;;9.70;;
80936;SDS011;70395;51.382;7.074;2024-02-21T03:56:44;17.03;;;10.40;;
80936;SDS011;70395;51.382;7.074;2024-02-21T03:59:12;19.33;;;9.60;;
80936;SDS011;70395;51.382;7.074;2024-02-21T04:01:38;14.20;;;10.47;;
80936;SDS011;70395;51.382;7.074;2024-02-21T04:04:04;33.30;;;10.53;;
80936;SDS011;70395;51.382;7.074;2024-02-21T04:06:30;18.93;;;10.57;;
80936;SDS011;70395;51.382;7.074;2024-02-21T04:08:56;18.20;;;9.33;;
80936;SDS011;70395;51.382;7.074;2024-02-21T04:11:22;22.13;;;9.77;;
80936;SDS011;70395;51.382;7.074;2024-02-21T04:13:48;13.57;;;9.37;;
80936;SDS011;70395;51.382;7.074;2024-02-21T04:16:15;13.30;;;8.10;;
80936;SDS011;70395;51.382;7.074;2024-02-21T04:18:42;17.60;;;10.30;;
80936;SDS011;70395;51.382;7.074;2024-02-21T04:21:08;15.70;;;10.00;;
80936;SDS011;70395;51.382;7.074;2024-02-21T04:23:35;14.30;;;8.67;;
80936;SDS011;70395;51.382;7.074;2024-02-21T04:26:00;17.47;;;9.77;;
80936;SDS011;70395;51.382;7.074;2024-02-21T04:28:26;18.10;;;9.97;;
80936;SDS011;70395;51.382;7.074;2024-02-21T04:30:52;18.10;;;9.33;;
80936;SDS011;70395;51.382;7.074;2024-02-21T04:33:18;17.30;;;9.07;;
80936;SDS011;70395;51.382;7.074;2024-02-21T04:35:44;12.23;;;9.23;;
80936;SDS011;70395;51.382;7.074;2024-02-21T04:38:09;18.60;;;9.47;;
80936;SDS011;70395;51.382;7.074;2024-02-21T04:40:35;18.20;;;9.10;;
80936;SDS011;70395;51.382;7.074;2024-02-21T04:43:01;19.10;;;8.63;;
80936;SDS011;70395;51.382;7.074;2024-02-21T04:45:27;14.50;;;8.10;;
80936;SDS011;70395;51.382;7.074;2024-02-21T04:47:53;16.70;;;8.83;;
80936;SDS011;70395;51.382;7.074;2024-02-21T04:50:18;17.67;;;8.60;;
80936;SDS011;70395;51.382;7.074;2024-02-21T04:52:44;16.77;;;9.40;;
80936;SDS011;70395;51.382;7.074;2024-02-21T04:55:10;12.87;;;7.57;;
80936;SDS011;70395;51.382;7.074;2024-02-21T04:57:36;14.20;;;9.03;;
80936;SDS011;70395;51.382;7.074;2024-02-21T05:00:02;16.17;;;8.23;;
80936;SDS011;70395;51.382;7.074;2024-02-21T05:02:28;14.40;;;7.90;;
80936;SDS011;70395;51.382;7.074;2024-02-21T05:04:55;15.30;;;9.23;;
80936;SDS011;70395;51.382;7.074;2024-02-21T05:07:21;12.70;;;8.23;;
80936;SDS011;70395;51.382;7.074;2024-02-21T05:09:47;12.10;;;7.47;;
80936;SDS011;70395;51.382;7.074;2024-02-21T05:12:13;14.07;;;7.63;;
80936;SDS011;70395;51.382;7.074;2024-02-21T05:14:39;14.97;;;8.80;;
80936;SDS011;70395;51.382;7.074;2024-02-21T05:17:04;13.30;;;8.27;;
80936;SDS011;70395;51.382;7.074;2024-02-21T05:19:30;14.73;;;8.17;;
80936;SDS011;70395;51.382;7.074;2024-02-21T05:21:56;16.27;;;8.13;;
80936;SDS011;70395;51.382;7.074;2024-02-21T05:24:23;14.27;;;8.80;;
80936;SDS011;70395;51.382;7.074;2024-02-21T05:26:49;21.03;;;8.17;;
80936;SDS011;70395;51.382;7.074;2024-02-21T05:29:15;15.23;;;7.97;;
80936;SDS011;70395;51.382;7.074;2024-02-21T05:34:19;13.00;;;6.97;;
80936;SDS011;70395;51.382;7.074;2024-02-21T05:36:46;16.37;;;8.50;;
80936;SDS011;70395;51.382;7.074;2024-02-21T05:39:15;15.00;;;6.97;;
80936;SDS011;70395;51.382;7.074;2024-02-21T05:41:42;14.40;;;8.10;;
80936;SDS011;70395;51.382;7.074;2024-02-21T05:44:08;13.90;;;7.77;;
80936;SDS011;70395;51.382;7.074;2024-02-21T05:46:34;13.37;;;8.03;;
80936;SDS011;70395;51.382;7.074;2024-02-21T05:49:00;11.93;;;7.57;;
80936;SDS011;70395;51.382;7.074;2024-02-21T05:51:26;13.40;;;8.60;;
80936;SDS011;70395;51.382;7.074;2024-02-21T05:53:52;15.33;;;7.57;;
80936;SDS011;70395;51.382;7.074;2024-02-21T05:56:18;17.87;;;9.10;;
80936;SDS011;70395;51.382;7.074;2024-02-21T05:58:44;13.03;;;7.73;;
80936;SDS011;70395;51.382;7.074;2024-02-21T06:01:10;11.47;;;7.23;;
80936;SDS011;70395;51.382;7.074;2024-02-21T06:03:37;13.03;;;7.20;;
80936;SDS011;70395;51.382;7.074;2024-02-21T06:06:03;13.03;;;7.13;;
80936;SDS011;70395;51.382;7.074;2024-02-21T06:08:30;12.17;;;6.53;;
80936;SDS011;70395;51.382;7.074;2024-02-21T06:10:56;13.87;;;7.40;;
80936;SDS011;70395;51.382;7.074;2024-02-21T06:13:23;17.33;;;7.57;;
80936;SDS011;70395;51.382;7.074;2024-02-21T06:15:49;13.77;;;8.20;;
80936;SDS011;70395;51.382;7.074;2024-02-21T06:18:19;11.13;;;6.90;;
80936;SDS011;70395;51.382;7.074;2024-02-21T06:20:46;11.87;;;7.27;;
80936;SDS011;70395;51.382;7.074;2024-02-21T06:23:12;12.97;;;7.67;;
80936;SDS011;70395;51.382;7.074;2024-02-21T06:25:41;13.40;;;6.90;;
80936;SDS011;70395;51.382;7.074;2024-02-21T06:28:07;12.47;;;6.60;;
80936;SDS011;70395;51.382;7.074;2024-02-21T06:30:33;14.40;;;6.93;;
80936;SDS011;70395;51.382;7.074;2024-02-21T06:33:00;13.53;;;6.80;;
80936;SDS011;70395;51.382;7.074;2024-02-21T06:35:27;12.67;;;7.33;;
80936;SDS011;70395;51.382;7.074;2024-02-21T06:37:54;13.97;;;7.07;;
80936;SDS011;70395;51.382;7.074;2024-02-21T06:40:22;11.47;;;6.67;;
80936;SDS011;70395;51.382;7.074;2024-02-21T06:42:49;10.23;;;7.20;;
80936;SDS011;70395;51.382;7.074;2024-02-21T06:45:15;14.00;;;6.43;;
80936;SDS011;70395;51.382;7.074;2024-02-21T06:47:41;10.50;;;6.10;;
80936;SDS011;70395;51.382;7.074;2024-02-21T06:50:08;14.30;;;7.00;;
80936;SDS011;70395;51.382;7.074;2024-02-21T06:52:35;12.27;;;5.80;;
80936;SDS011;70395;51.382;7.074;2024-02-21T06:55:02;9.80;;;6.20;;
80936;SDS011;70395;51.382;7.074;2024-02-21T06:57:28;10.53;;;6.10;;
80936;SDS011;70395;51.382;7.074;2024-02-21T06:59:54;11.53;;;6.37;;
80936;SDS011;70395;51.382;7.074;2024-02-21T07:02:20;16.80;;;7.47;;
80936;SDS011;70395;51.382;7.074;2024-02-21T07:04:46;16.33;;;6.97;;
80936;SDS011;70395;51.382;7.074;2024-02-21T07:07:13;12.00;;;6.47;;
80936;SDS011;70395;51.382;7.074;2024-02-21T07:09:39;9.80;;;6.07;;
80936;SDS011;70395;51.382;7.074;2024-02-21T07:12:05;9.60;;;5.90;;
80936;SDS011;70395;51.382;7.074;2024-02-21T07:14:35;10.57;;;6.60;;
80936;SDS011;70395;51.382;7.074;2024-02-21T07:17:01;10.60;;;6.30;;
80936;SDS011;70395;51.382;7.074;2024-02-21T07:19:27;8.77;;;5.33;;
80936;SDS011;70395;51.382;7.074;2024-02-21T07:21:53;8.10;;;6.33;;
80936;SDS011;70395;51.382;7.074;2024-02-21T07:24:18;9.80;;;5.83;;
80936;SDS011;70395;51.382;7.074;2024-02-21T07:26:44;16.03;;;6.60;;
80936;SDS011;70395;51.382;7.074;2024-02-21T07:29:10;13.57;;;6.10;;
80936;SDS011;70395;51.382;7.074;2024-02-21T07:31:40;12.20;;;6.47;;
80936;SDS011;70395;51.382;7.074;2024-02-21T07:34:07;10.40;;;6.57;;
80936;SDS011;70395;51.382;7.074;2024-02-21T07:36:33;9.73;;;6.13;;
80936;SDS011;70395;51.382;7.074;2024-02-21T07:39:00;13.33;;;6.30;;
80936;SDS011;70395;51.382;7.074;2024-02-21T07:41:26;9.90;;;6.00;;
80936;SDS011;70395;51.382;7.074;2024-02-21T07:43:53;11.07;;;6.93;;
80936;SDS011;70395;51.382;7.074;2024-02-21T07:46:19;13.40;;;6.93;;
80936;SDS011;70395;51.382;7.074;2024-02-21T07:48:45;12.43;;;6.93;;
80936;SDS011;70395;51.382;7.074;2024-02-21T07:51:12;10.90;;;5.50;;
80936;SDS011;70395;51.382;7.074;2024-02-21T07:53:40;10.83;;;6.40;;
80936;SDS011;70395;51.382;7.074;2024-02-21T07:56:13;14.37;;;5.90;;
80936;SDS011;70395;51.382;7.074;2024-02-21T07:58:40;11.03;;;5.20;;
80936;SDS011;70395;51.382;7.074;2024-02-21T08:01:07;10.60;;;6.23;;
80936;SDS011;70395;51.382;7.074;2024-02-21T08:03:34;7.73;;;5.17;;
80936;SDS011;70395;51.382;7.074;2024-02-21T08:06:00;9.63;;;5.03;;
80936;SDS011;70395;51.382;7.074;2024-02-21T08:08:27;8.90;;;5.00;;
80936;SDS011;70395;51.382;7.074;2024-02-21T08:10:53;8.67;;;5.00;;
80936;SDS011;70395;51.382;7.074;2024-02-21T08:13:19;9.87;;;4.93;;
80936;SDS011;70395;51.382;7.074;2024-02-21T08:15:44;10.57;;;4.47;;
80936;SDS011;70395;51.382;7.074;2024-02-21T08:18:10;9.40;;;5.70;;
80936;SDS011;70395;51.382;7.074;2024-02-21T08:20:36;9.33;;;5.17;;
80936;SDS011;70395;51.382;7.074;2024-02-21T08:23:02;6.77;;;4.30;;
80936;SDS011;70395;51.382;7.074;2024-02-21T08:25:28;8.10;;;4.43;;
80936;SDS011;70395;51.382;7.074;2024-02-21T08:27:57;10.40;;;5.23;;
80936;SDS011;70395;51.382;7.074;2024-02-21T08:30:24;11.97;;;5.17;;
80936;SDS011;70395;51.382;7.074;2024-02-21T08:32:50;7.53;;;4.30;;
80936;SDS011;70395;51.382;7.074;2024-02-21T08:35:16;14.13;;;5.53;;
80936;SDS011;70395;51.382;7.074;2024-02-21T08:37:47;10.27;;;4.60;;
80936;SDS011;70395;51.382;7.074;2024-02-21T08:40:13;6.50;;;4.83;;
80936;SDS011;70395;51.382;7.074;2024-02-21T08:42:42;10.30;;;4.87;;
80936;SDS011;70395;51.382;7.074;2024-02-21T08:45:09;11.50;;;5.03;;
80936;SDS011;70395;51.382;7.074;2024-02-21T08:47:35;11.77;;;4.53;;
80936;SDS011;70395;51.382;7.074;2024-02-21T08:50:02;13.03;;;5.27;;
80936;SDS011;70395;51.382;7.074;2024-02-21T08:52:28;7.70;;;4.40;;
80936;SDS011;70395;51.382;7.074;2024-02-21T08:54:54;9.53;;;5.20;;
80936;SDS011;70395;51.382;7.074;2024-02-21T08:57:20;11.53;;;5.30;;
80936;SDS011;70395;51.382;7.074;2024-02-21T08:59:46;9.83;;;5.03;;
80936;SDS011;70395;51.382;7.074;2024-02-21T09:02:12;10.77;;;5.07;;
80936;SDS011;70395;51.382;7.074;2024-02-21T09:04:41;11.87;;;4.97;;
80936;SDS011;70395;51.382;7.074;2024-02-21T09:07:07;10.90;;;5.00;;
80936;SDS011;70395;51.382;7.074;2024-02-21T09:09:33;14.70;;;6.30;;
80936;SDS011;70395;51.382;7.074;2024-02-21T09:11:59;12.43;;;6.13;;
80936;SDS011;70395;51.382;7.074;2024-02-21T09:14:31;15.37;;;6.43;;
80936;SDS011;70395;51.382;7.074;2024-02-21T09:16:57;14.23;;;6.83;;
80936;SDS011;70395;51.382;7.074;2024-02-21T09:19:23;13.13;;;6.63;;
80936;SDS011;70395;51.382;7.074;2024-02-21T09:21:49;12.03;;;6.40;;
80936;SDS011;70395;51.382;7.074;2024-02-21T09:24:15;16.33;;;7.50;;
80936;SDS011;70395;51.382;7.074;2024-02-21T09:26:41;15.37;;;6.30;;
80936;SDS011;70395;51.382;7.074;2024-02-21T09:29:07;15.80;;;7.13;;
80936;SDS011;70395;51.382;7.074;2024-02-21T09:31:33;10.87;;;6.63;;
80936;SDS011;70395;51.382;7.074;2024-02-21T09:33:58;14.20;;;5.63;;
80936;SDS011;70395;51.382;7.074;2024-02-21T09:36:24;12.43;;;5.97;;
80936;SDS011;70395;51.382;7.074;2024-02-21T09:38:50;12.70;;;6.30;;
80936;SDS011;70395;51.382;7.074;2024-02-21T09:41:17;16.77;;;6.37;;
80936;SDS011;70395;51.382;7.074;2024-02-21T09:43:50;12.60;;;7.73;;
80936;SDS011;70395;51.382;7.074;2024-02-21T09:46:18;12.97;;;5.80;;
80936;SDS011;70395;51.382;7.074;2024-02-21T09:51:47;14.77;;;6.90;;
80936;SDS011;70395;51.382;7.074;2024-02-21T09:54:16;15.10;;;7.07;;
80936;SDS011;70395;51.382;7.074;2024-02-21T09:56:46;12.77;;;6.23;;
80936;SDS011;70395;51.382;7.074;2024-02-21T09:59:15;10.60;;;6.40;;
80936;SDS011;70395;51.382;7.074;2024-02-21T10:01:42;16.07;;;6.83;;
80936;SDS011;70395;51.382;7.074;2024-02-21T10:04:09;13.37;;;7.13;;
80936;SDS011;70395;51.382;7.074;2024-02-21T10:06:35;18.60;;;8.10;;
80936;SDS011;70395;51.382;7.074;2024-02-21T10:09:05;15.60;;;7.87;;
80936;SDS011;70395;51.382;7.074;2024-02-21T10:11:32;11.67;;;6.00;;
80936;SDS011;70395;51.382;7.074;2024-02-21T10:14:07;11.27;;;7.17;;
80936;SDS011;70395;51.382;7.074;2024-02-21T10:16:33;15.50;;;8.23;;
80936;SDS011;70395;51.382;7.074;2024-02-21T10:19:00;14.23;;;7.30;;
80936;SDS011;70395;51.382;7.074;2024-02-21T10:21:26;10.87;;;6.97;;
80936;SDS011;70395;51.382;7.074;2024-02-21T10:23:52;9.27;;;6.37;;
80936;SDS011;70395;51.382;7.074;2024-02-21T10:26:18;11.77;;;6.57;;
80936;SDS011;70395;51.382;7.074;2024-02-21T10:28:45;8.90;;;6.23;;
80936;SDS011;70395;51.382;7.074;2024-02-21T10:33:59;7.10;;;6.10;;
80936;SDS011;70395;51.382;7.074;2024-02-21T10:36:28;9.47;;;5.67;;
80936;SDS011;70395;51.382;7.074;2024-02-21T10:38:55;9.80;;;6.83;;
80936;SDS011;70395;51.382;7.074;2024-02-21T10:41:21;8.50;;;5.50;;
80936;SDS011;70395;51.382;7.074;2024-02-21T10:43:50;10.50;;;6.30;;
80936;SDS011;70395;51.382;7.074;2024-02-21T10:46:21;7.40;;;5.57;;
80936;SDS011;70395;51.382;7.074;2024-02-21T10:49:07;6.83;;;5.43;;
80936;SDS011;70395;51.382;7.074;2024-02-21T10:51:45;8.77;;;5.40;;
80936;SDS011;70395;51.382;7.074;2024-02-21T10:54:25;6.47;;;5.63;;
80936;SDS011;70395;51.382;7.074;2024-02-21T10:56:59;10.47;;;5.50;;
80936;SDS011;70395;51.382;7.074;2024-02-21T10:59:29;10.13;;;6.47;;
80936;SDS011;70395;51.382;7.074;2024-02-21T11:01:57;9.73;;;5.47;;
80936;SDS011;70395;51.382;7.074;2024-02-21T11:04:23;8.27;;;5.90;;
80936;SDS011;70395;51.382;7.074;2024-02-21T11:06:51;6.70;;;4.83;;
80936;SDS011;70395;51.382;7.074;2024-02-21T11:09:17;12.20;;;6.10;;
80936;SDS011;70395;51.382;7.074;2024-02-21T11:11:43;9.90;;;5.63;;
80936;SDS011;70395;51.382;7.074;2024-02-21T11:14:19;7.97;;;5.63;;
80936;SDS011;70395;51.382;7.074;2024-02-21T11:16:46;11.87;;;5.70;;
80936;SDS011;70395;51.382;7.074;2024-02-21T11:19:19;8.27;;;5.27;;
80936;SDS011;70395;51.382;7.074;2024-02-21T11:21:46;9.33;;;5.40;;
80936;SDS011;70395;51.382;7.074;2024-02-21T11:24:13;9.73;;;5.43;;
80936;SDS011;70395;51.382;7.074;2024-02-21T11:26:50;11.40;;;5.77;;
80936;SDS011;70395;51.382;7.074;2024-02-21T11:29:15;8.57;;;5.10;;
80936;SDS011;70395;51.382;7.074;2024-02-21T11:31:50;6.73;;;4.90;;
80936;SDS011;70395;51.382;7.074;2024-02-21T11:34:19;7.77;;;5.20;;
80936;SDS011;70395;51.382;7.074;2024-02-21T11:36:48;8.93;;;5.00;;
80936;SDS011;70395;51.382;7.074;2024-02-21T11:39:18;6.83;;;4.60;;
80936;SDS011;70395;51.382;7.074;2024-02-21T11:44:33;8.53;;;5.63;;
80936;SDS011;70395;51.382;7.074;2024-02-21T11:47:03;9.23;;;5.30;;
80936;SDS011;70395;51.382;7.074;2024-02-21T11:49:35;6.70;;;4.80;;
80936;SDS011;70395;51.382;7.074;2024-02-21T11:52:04;8.73;;;4.57;;
80936;SDS011;70395;51.382;7.074;2024-02-21T11:54:32;7.83;;;5.67;;
80936;SDS011;70395;51.382;7.074;2024-02-21T11:56:59;12.80;;;4.57;;
80936;SDS011;70395;51.382;7.074;2024-02-21T11:59:26;10.60;;;5.27;;
80936;SDS011;70395;51.382;7.074;2024-02-21T12:01:56;7.37;;;4.80;;
80936;SDS011;70395;51.382;7.074;2024-02-21T12:04:24;10.83;;;5.00;;
80936;SDS011;70395;51.382;7.074;2024-02-21T12:06:50;7.87;;;4.53;;
80936;SDS011;70395;51.382;7.074;2024-02-21T12:09:19;7.70;;;5.20;;
80936;SDS011;70395;51.382;7.074;2024-02-21T12:11:56;6.80;;;4.10;;
80936;SDS011;70395;51.382;7.074;2024-02-21T12:14:30;8.17;;;4.00;;
80936;SDS011;70395;51.382;7.074;2024-02-21T12:16:58;7.13;;;4.33;;
80936;SDS011;70395;51.382;7.074;2024-02-21T12:19:28;9.97;;;4.00;;
80936;SDS011;70395;51.382;7.074;2024-02-21T12:21:55;9.70;;;3.27;;
80936;SDS011;70395;51.382;7.074;2024-02-21T12:24:23;11.43;;;4.07;;
80936;SDS011;70395;51.382;7.074;2024-02-21T12:26:54;7.30;;;4.00;;
80936;SDS011;70395;51.382;7.074;2024-02-21T12:29:21;10.13;;;3.83;;
80936;SDS011;70395;51.382;7.074;2024-02-21T12:31:51;6.63;;;3.63;;
80936;SDS011;70395;51.382;7.074;2024-02-21T12:34:19;6.27;;;3.93;;
80936;SDS011;70395;51.382;7.074;2024-02-21T12:36:47;6.43;;;3.40;;
80936;SDS011;70395;51.382;7.074;2024-02-21T12:39:13;7.17;;;3.57;;
80936;SDS011;70395;51.382;7.074;2024-02-21T12:41:39;8.67;;;3.43;;
80936;SDS011;70395;51.382;7.074;2024-02-21T12:44:07;11.73;;;4.10;;
80936;SDS011;70395;51.382;7.074;2024-02-21T12:46:34;6.87;;;4.00;;
80936;SDS011;70395;51.382;7.074;2024-02-21T12:49:02;8.93;;;4.23;;
80936;SDS011;70395;51.382;7.074;2024-02-21T12:51:29;6.50;;;3.60;;
80936;SDS011;70395;51.382;7.074;2024-02-21T12:53:58;7.10;;;3.70;;
80936;SDS011;70395;51.382;7.074;2024-02-21T12:56:24;10.17;;;3.83;;
80936;SDS011;70395;51.382;7.074;2024-02-21T12:58:54;9.90;;;4.77;;
80936;SDS011;70395;51.382;7.074;2024-02-21T13:01:20;9.10;;;3.80;;
80936;SDS011;70395;51.382;7.074;2024-02-21T13:03:46;13.50;;;4.60;;
80936;SDS011;70395;51.382;7.074;2024-02-21T13:06:12;8.43;;;3.53;;
80936;SDS011;70395;51.382;7.074;2024-02-21T13:08:39;7.67;;;3.90;;
80936;SDS011;70395;51.382;7.074;2024-02-21T13:11:06;7.37;;;3.43;;
80936;SDS011;70395;51.382;7.074;2024-02-21T13:13:32;8.40;;;4.53;;
80936;SDS011;70395;51.382;7.074;2024-02-21T13:15:58;8.07;;;3.90;;
80936;SDS011;70395;51.382;7.074;2024-02-21T13:18:24;6.50;;;3.50;;
80936;SDS011;70395;51.382;7.074;2024-02-21T13:20:51;7.17;;;4.10;;
80936;SDS011;70395;51.382;7.074;2024-02-21T13:23:16;7.90;;;3.53;;
80936;SDS011;70395;51.382;7.074;2024-02-21T13:25:43;6.70;;;3.80;;
80936;SDS011;70395;51.382;7.074;2024-02-21T13:28:12;6.73;;;3.90;;
80936;SDS011;70395;51.382;7.074;2024-02-21T13:30:38;7.93;;;4.10;;
80936;SDS011;70395;51.382;7.074;2024-02-21T13:33:05;8.17;;;3.67;;
80936;SDS011;70395;51.382;7.074;2024-02-21T13:35:32;10.97;;;4.23;;
80936;SDS011;70395;51.382;7.074;2024-02-21T13:37:58;5.33;;;2.90;;
80936;SDS011;70395;51.382;7.074;2024-02-21T13:40:23;8.93;;;3.90;;
80936;SDS011;70395;51.382;7.074;2024-02-21T13:42:50;11.13;;;3.90;;
80936;SDS011;70395;51.382;7.074;2024-02-21T13:45:16;9.30;;;3.60;;
80936;SDS011;70395;51.382;7.074;2024-02-21T13:47:42;6.87;;;3.40;;
80936;SDS011;70395;51.382;7.074;2024-02-21T13:50:08;7.27;;;3.57;;
80936;SDS011;70395;51.382;7.074;2024-02-21T13:52:37;8.67;;;3.33;;
80936;SDS011;70395;51.382;7.074;2024-02-21T13:55:03;8.10;;;4.17;;
80936;SDS011;70395;51.382;7.074;2024-02-21T13:57:29;8.20;;;3.40;;
80936;SDS011;70395;51.382;7.074;2024-02-21T13:59:55;7.87;;;3.50;;
80936;SDS011;70395;51.382;7.074;2024-02-21T14:02:21;9.10;;;3.90;;
80936;SDS011;70395;51.382;7.074;2024-02-21T14:04:47;7.23;;;3.90;;
80936;SDS011;70395;51.382;7.074;2024-02-21T14:07:13;8.20;;;3.93;;
80936;SDS011;70395;51.382;7.074;2024-02-21T14:09:38;5.40;;;3.40;;
80936;SDS011;70395;51.382;7.074;2024-02-21T14:12:04;10.43;;;4.20;;
80936;SDS011;70395;51.382;7.074;2024-02-21T14:14:35;8.63;;;3.57;;
80936;SDS011;70395;51.382;7.074;2024-02-21T14:17:01;8.57;;;3.60;;
80936;SDS011;70395;51.382;7.074;2024-02-21T14:19:28;6.17;;;3.50;;
80936;SDS011;70395;51.382;7.074;2024-02-21T14:21:55;5.47;;;3.10;;
80936;SDS011;70395;51.382;7.074;2024-02-21T14:24:22;6.83;;;3.20;;
80936;SDS011;70395;51.382;7.074;2024-02-21T14:26:52;9.07;;;3.40;;
80936;SDS011;70395;51.382;7.074;2024-02-21T14:29:19;6.20;;;3.50;;
80936;SDS011;70395;51.382;7.074;2024-02-21T14:31:46;6.00;;;3.30;;
80936;SDS011;70395;51.382;7.074;2024-02-21T14:34:11;7.60;;;3.03;;
80936;SDS011;70395;51.382;7.074;2024-02-21T14:36:37;9.70;;;3.50;;
80936;SDS011;70395;51.382;7.074;2024-02-21T14:39:03;7.20;;;3.20;;
80936;SDS011;70395;51.382;7.074;2024-02-21T14:41:30;8.87;;;3.77;;
80936;SDS011;70395;51.382;7.074;2024-02-21T14:43:55;6.83;;;3.27;;
80936;SDS011;70395;51.382;7.074;2024-02-21T14:46:25;5.73;;;3.10;;